createdAt,value
2019-02-01T00:03:01.477Z,965.25
2019-02-01T00:04:01.482Z,965.22
2019-02-01T00:05:25.981Z,965.19
2019-02-01T00:07:33.824Z,965.16
2019-02-01T00:08:33.833Z,965.11
2019-02-01T00:09:54.836Z,965.11
2019-02-01T00:13:40.474Z,965.09
2019-02-01T00:14:41.917Z,965.09
2019-02-01T00:17:15.260Z,965.14
2019-02-01T00:18:15.268Z,965.18
2019-02-01T00:19:15.776Z,965.08
2019-02-01T00:21:51.109Z,965.13
2019-02-01T00:24:40.882Z,965.16
2019-02-01T00:25:41.421Z,965.11
2019-02-01T00:27:54.176Z,965.13
2019-02-01T00:28:50.650Z,965.11
2019-02-01T00:30:11.647Z,965.11
2019-02-01T00:32:22.372Z,965.08
2019-02-01T00:33:27.417Z,965.06
2019-02-01T00:34:22.376Z,965.08
2019-02-01T00:36:54.604Z,965.06
2019-02-01T00:37:54.607Z,965.07
2019-02-01T00:42:22.835Z,965.10
2019-02-01T00:43:01.842Z,965.07
2019-02-01T00:44:05.344Z,965.03
2019-02-01T00:46:48.076Z,965.02
2019-02-01T00:47:34.112Z,965.02
2019-02-01T00:48:34.066Z,965.01
2019-02-01T00:51:09.883Z,965.00
2019-02-01T00:52:09.893Z,964.96
2019-02-01T00:53:31.392Z,964.96
2019-02-01T00:54:11.852Z,964.94
2019-02-01T00:55:13.392Z,964.95
2019-02-01T00:56:32.360Z,964.93
2019-02-01T00:57:10.393Z,964.90
2019-02-01T00:58:12.892Z,964.83
2019-02-01T00:59:24.893Z,964.83
2019-02-01T01:02:06.169Z,964.72
2019-02-01T01:03:06.170Z,964.72
2019-02-01T01:03:45.681Z,964.70
2019-02-01T01:05:06.680Z,964.69
2019-02-01T01:06:10.167Z,964.61
2019-02-01T01:06:45.670Z,964.65
2019-02-01T01:07:50.225Z,964.62
2019-02-01T01:09:08.612Z,964.57
2019-02-01T01:09:48.638Z,964.56
2019-02-01T01:10:46.169Z,964.56
2019-02-01T01:16:25.165Z,964.39
2019-02-01T01:17:53.106Z,964.40
2019-02-01T01:18:25.168Z,964.42
2019-02-01T01:22:32.298Z,964.41
2019-02-01T01:23:49.305Z,964.42
2019-02-01T01:29:06.878Z,964.37
2019-02-01T01:30:06.958Z,964.29
2019-02-01T01:32:42.576Z,964.27
2019-02-01T01:35:10.009Z,964.24
2019-02-01T01:36:10.021Z,964.19
2019-02-01T01:38:44.605Z,964.07
2019-02-01T01:40:02.613Z,964.07
2019-02-01T01:40:41.611Z,964.04
2019-02-01T01:43:13.328Z,964.01
2019-02-01T01:44:38.331Z,964.01
2019-02-01T01:45:13.336Z,964.00
2019-02-01T01:46:34.832Z,963.97
2019-02-01T01:47:36.271Z,964.00
2019-02-01T01:48:13.832Z,963.93
2019-02-01T01:50:49.188Z,963.99
2019-02-01T01:52:11.652Z,963.92
2019-02-01T01:52:51.691Z,963.93
2019-02-01T01:56:55.946Z,963.86
2019-02-01T01:57:55.942Z,963.91
2019-02-01T01:59:18.947Z,963.85
2019-02-01T02:01:52.662Z,963.88
2019-02-01T02:05:31.738Z,963.85
2019-02-01T02:06:56.739Z,963.84
2019-02-01T02:10:56.371Z,963.73
2019-02-01T02:11:38.897Z,963.70
2019-02-01T02:12:35.380Z,963.64
2019-02-01T02:15:28.096Z,963.60
2019-02-01T02:16:28.105Z,963.59
2019-02-01T02:17:31.606Z,963.60
2019-02-01T02:19:38.830Z,963.58
2019-02-01T02:20:38.836Z,963.61
2019-02-01T02:23:14.565Z,963.61
2019-02-01T02:24:10.560Z,963.63
2019-02-01T02:25:10.559Z,963.58
2019-02-01T02:30:49.085Z,963.53
2019-02-01T02:31:49.210Z,963.53
2019-02-01T02:35:55.297Z,963.51
2019-02-01T02:36:55.296Z,963.49
2019-02-01T02:37:55.298Z,963.48
2019-02-01T02:38:55.889Z,963.43
2019-02-01T02:39:59.297Z,963.43
2019-02-01T02:40:55.792Z,963.43
2019-02-01T02:43:48.894Z,963.44
2019-02-01T02:47:34.956Z,963.42
2019-02-01T02:49:00.450Z,963.45
2019-02-01T02:49:34.380Z,963.44
2019-02-01T02:50:34.987Z,963.52
2019-02-01T02:51:59.965Z,963.50
2019-02-01T02:54:27.815Z,963.52
2019-02-01T03:01:15.671Z,963.50
2019-02-01T03:02:21.185Z,963.48
2019-02-01T03:03:15.675Z,963.52
2019-02-01T03:07:24.772Z,963.52
2019-02-01T03:08:19.328Z,963.45
2019-02-01T03:09:19.314Z,963.43
2019-02-01T03:10:21.250Z,963.39
2019-02-01T03:11:40.817Z,963.38
2019-02-01T03:12:19.172Z,963.34
2019-02-01T03:13:23.321Z,963.34
2019-02-01T03:14:41.315Z,963.35
2019-02-01T03:15:41.319Z,963.27
2019-02-01T03:16:20.313Z,963.23
2019-02-01T03:18:55.920Z,963.22
2019-02-01T03:21:26.968Z,963.19
2019-02-01T03:24:19.908Z,963.06
2019-02-01T03:24:57.385Z,963.09
2019-02-01T03:26:16.418Z,963.04
2019-02-01T03:26:55.416Z,963.07
2019-02-01T03:29:51.639Z,963.09
2019-02-01T03:30:48.152Z,963.10
2019-02-01T03:34:57.878Z,963.08
2019-02-01T03:35:30.600Z,963.02
2019-02-01T03:37:52.102Z,962.97
2019-02-01T03:40:08.533Z,963.01
2019-02-01T03:41:02.581Z,963.06
2019-02-01T03:42:23.581Z,963.06
2019-02-01T03:44:37.247Z,962.94
2019-02-01T03:45:58.817Z,962.97
2019-02-01T03:46:48.312Z,962.91
2019-02-01T03:47:55.821Z,962.86
2019-02-01T03:48:55.813Z,962.85
2019-02-01T03:49:34.810Z,962.81
2019-02-01T03:50:34.808Z,962.73
2019-02-01T03:51:45.746Z,962.72
2019-02-01T03:54:06.652Z,962.73
2019-02-01T03:55:06.663Z,962.74
2019-02-01T03:57:41.876Z,962.69
2019-02-01T03:58:59.381Z,962.71
2019-02-01T03:59:39.831Z,962.68
2019-02-01T04:00:58.895Z,962.76
2019-02-01T04:04:44.998Z,962.69
2019-02-01T04:06:05.999Z,962.67
2019-02-01T04:08:41.731Z,962.69
2019-02-01T04:09:16.734Z,962.67
2019-02-01T04:13:25.331Z,962.67
2019-02-01T04:14:40.894Z,962.60
2019-02-01T04:15:19.942Z,962.62
2019-02-01T04:17:51.620Z,962.63
2019-02-01T04:23:30.387Z,962.35
2019-02-01T04:24:35.844Z,962.35
2019-02-01T04:25:31.849Z,962.34
2019-02-01T04:26:51.898Z,962.33
2019-02-01T04:27:51.896Z,962.31
2019-02-01T04:28:30.894Z,962.33
2019-02-01T04:31:06.184Z,962.33
2019-02-01T04:32:06.189Z,962.31
2019-02-01T04:33:27.691Z,962.25
2019-02-01T04:34:27.689Z,962.31
2019-02-01T04:38:12.968Z,962.37
2019-02-01T04:39:33.971Z,962.38
2019-02-01T04:41:48.257Z,962.34
2019-02-01T04:43:09.260Z,962.39
2019-02-01T04:43:48.259Z,962.43
2019-02-01T04:46:24.486Z,962.51
2019-02-01T04:47:41.983Z,962.50
2019-02-01T04:50:03.300Z,962.51
2019-02-01T04:51:13.463Z,962.46
2019-02-01T04:51:58.897Z,962.44
2019-02-01T04:53:19.400Z,962.42
2019-02-01T04:54:15.434Z,962.43
2019-02-01T04:54:52.280Z,962.42
2019-02-01T04:57:49.501Z,962.35
2019-02-01T04:58:46.003Z,962.34
2019-02-01T04:59:46.007Z,962.36
2019-02-01T05:00:24.595Z,962.38
2019-02-01T05:01:25.503Z,962.35
2019-02-01T05:02:25.502Z,962.27
2019-02-01T05:03:29.501Z,962.28
2019-02-01T05:04:25.088Z,962.33
2019-02-01T05:08:31.731Z,962.32
2019-02-01T05:09:29.241Z,962.26
2019-02-01T05:12:21.830Z,962.13
2019-02-01T05:13:00.839Z,962.12
2019-02-01T05:18:39.146Z,962.13
2019-02-01T05:21:35.473Z,962.18
2019-02-01T05:22:35.474Z,962.19
2019-02-01T05:23:35.473Z,962.20
2019-02-01T05:26:13.203Z,962.20
2019-02-01T05:26:48.637Z,962.20
2019-02-01T05:28:07.204Z,962.19
2019-02-01T05:28:47.675Z,962.26
2019-02-01T05:33:14.119Z,962.39
2019-02-01T05:33:53.131Z,962.42
2019-02-01T05:34:53.126Z,962.43
2019-02-01T05:36:16.099Z,962.41
2019-02-01T05:41:32.418Z,962.39
2019-02-01T05:42:35.921Z,962.37
2019-02-01T05:43:32.429Z,962.38
2019-02-01T05:44:32.920Z,962.40
2019-02-01T05:45:32.921Z,962.40
2019-02-01T05:46:32.921Z,962.41
2019-02-01T05:47:32.921Z,962.38
2019-02-01T05:48:36.923Z,962.33
2019-02-01T05:51:25.771Z,962.40
2019-02-01T05:52:25.768Z,962.48
2019-02-01T05:53:04.768Z,962.49
2019-02-01T05:55:41.032Z,962.58
2019-02-01T05:56:41.036Z,962.58
2019-02-01T06:00:47.770Z,962.61
2019-02-01T06:03:40.249Z,962.58
2019-02-01T06:04:44.261Z,962.56
2019-02-01T06:07:11.862Z,962.56
2019-02-01T06:08:11.870Z,962.54
2019-02-01T06:08:50.869Z,962.57
2019-02-01T06:09:55.804Z,962.59
2019-02-01T06:10:51.370Z,962.60
2019-02-01T06:11:51.368Z,962.65
2019-02-01T06:12:53.372Z,962.64
2019-02-01T06:14:18.876Z,962.60
2019-02-01T06:14:58.303Z,962.64
2019-02-01T06:15:51.868Z,962.56
2019-02-01T06:16:51.886Z,962.61
2019-02-01T06:17:52.368Z,962.62
2019-02-01T06:19:13.368Z,962.67
2019-02-01T06:19:52.367Z,962.63
2019-02-01T06:21:02.380Z,962.64
2019-02-01T06:21:52.863Z,962.62
2019-02-01T06:23:15.347Z,962.60
2019-02-01T06:24:13.866Z,962.60
2019-02-01T06:24:54.322Z,962.65
2019-02-01T06:25:56.866Z,962.57
2019-02-01T06:28:24.586Z,962.58
2019-02-01T06:30:59.054Z,962.59
2019-02-01T06:33:27.532Z,962.69
2019-02-01T06:36:23.500Z,962.70
2019-02-01T06:37:20.007Z,962.69
2019-02-01T06:37:59.006Z,962.73
2019-02-01T06:40:51.721Z,962.76
2019-02-01T06:41:34.227Z,962.86
2019-02-01T06:42:30.729Z,962.89
2019-02-01T06:43:30.325Z,962.86
2019-02-01T06:44:52.228Z,962.86
2019-02-01T06:45:35.162Z,962.85
2019-02-01T06:46:35.228Z,962.85
2019-02-01T06:47:31.234Z,962.85
2019-02-01T06:48:58.729Z,962.88
2019-02-01T06:49:52.726Z,962.85
2019-02-01T06:50:53.102Z,962.83
2019-02-01T06:51:31.735Z,962.81
2019-02-01T06:54:28.024Z,962.91
2019-02-01T06:55:07.032Z,962.86
2019-02-01T06:56:28.030Z,962.89
2019-02-01T06:57:11.464Z,962.91
2019-02-01T06:58:10.537Z,962.98
2019-02-01T06:59:28.530Z,962.93
2019-02-01T07:00:07.546Z,962.96
2019-02-01T07:01:10.040Z,962.96
2019-02-01T07:02:29.026Z,962.99
2019-02-01T07:03:12.966Z,962.99
2019-02-01T07:04:08.029Z,963.02
2019-02-01T07:05:08.534Z,963.00
2019-02-01T07:06:09.969Z,963.07
2019-02-01T07:07:08.574Z,963.03
2019-02-01T07:08:10.007Z,963.01
2019-02-01T07:10:43.326Z,963.01
2019-02-01T07:13:14.766Z,962.96
2019-02-01T07:15:49.541Z,963.03
2019-02-01T07:16:49.547Z,963.02
2019-02-01T07:17:49.546Z,963.08
2019-02-01T07:20:25.263Z,963.11
2019-02-01T07:21:21.270Z,963.16
2019-02-01T07:22:22.704Z,963.19
2019-02-01T07:23:20.854Z,963.27
2019-02-01T07:25:55.569Z,963.29
2019-02-01T07:36:05.780Z,963.38
2019-02-01T07:37:08.373Z,963.34
2019-02-01T07:38:27.277Z,963.32
2019-02-01T07:39:27.214Z,963.40
2019-02-01T07:40:27.279Z,963.44
2019-02-01T07:44:34.112Z,963.40
2019-02-01T07:46:45.101Z,963.38
2019-02-01T07:47:49.090Z,963.38
2019-02-01T07:48:45.089Z,963.38
2019-02-01T07:49:45.653Z,963.41
2019-02-01T07:52:16.150Z,963.43
2019-02-01T07:53:20.372Z,963.43
2019-02-01T07:57:41.401Z,963.54
2019-02-01T07:58:44.915Z,963.58
2019-02-01T07:59:42.844Z,963.58
2019-02-01T08:00:19.912Z,963.60
2019-02-01T08:01:28.382Z,963.60
2019-02-01T08:02:43.916Z,963.65
2019-02-01T08:05:00.352Z,963.63
2019-02-01T08:06:17.811Z,963.65
2019-02-01T08:06:56.814Z,963.65
2019-02-01T08:08:19.245Z,963.67
2019-02-01T08:10:52.961Z,963.69
2019-02-01T08:11:52.968Z,963.77
2019-02-01T08:12:31.968Z,963.74
2019-02-01T08:13:32.472Z,963.76
2019-02-01T08:14:35.968Z,963.76
2019-02-01T08:15:32.468Z,963.79
2019-02-01T08:16:32.470Z,963.85
2019-02-01T08:19:07.626Z,963.86
2019-02-01T08:20:31.127Z,963.86
2019-02-01T08:21:04.691Z,963.84
2019-02-01T08:22:05.625Z,963.85
2019-02-01T08:23:26.189Z,963.83
2019-02-01T08:24:06.165Z,963.85
2019-02-01T08:25:09.191Z,963.87
2019-02-01T08:26:26.196Z,963.89
2019-02-01T08:27:05.695Z,963.90
2019-02-01T08:28:07.690Z,963.92
2019-02-01T08:29:05.690Z,963.91
2019-02-01T08:30:05.694Z,963.93
2019-02-01T08:31:30.690Z,963.94
2019-02-01T08:32:12.265Z,963.99
2019-02-01T08:33:05.578Z,964.01
2019-02-01T08:34:06.200Z,964.00
2019-02-01T08:35:27.690Z,963.96
2019-02-01T08:36:06.691Z,963.98
2019-02-01T08:37:09.699Z,963.92
2019-02-01T08:38:06.788Z,963.90
2019-02-01T08:40:28.193Z,963.88
2019-02-01T08:41:07.189Z,963.87
2019-02-01T08:42:25.195Z,963.87
2019-02-01T08:43:07.693Z,963.90
2019-02-01T08:44:07.689Z,963.95
2019-02-01T08:45:07.690Z,963.96
2019-02-01T08:46:07.694Z,963.90
2019-02-01T08:47:22.125Z,963.94
2019-02-01T08:48:33.262Z,963.91
2019-02-01T08:49:08.189Z,963.93
2019-02-01T08:50:08.219Z,963.98
2019-02-01T08:54:15.412Z,963.94
2019-02-01T08:55:33.808Z,963.93
2019-02-01T08:56:32.836Z,963.95
2019-02-01T08:58:43.312Z,963.95
2019-02-01T09:00:00.824Z,963.99
2019-02-01T09:00:42.799Z,963.94
2019-02-01T09:01:57.818Z,963.92
2019-02-01T09:04:15.172Z,963.93
2019-02-01T09:05:25.173Z,963.89
2019-02-01T09:08:07.898Z,963.92
2019-02-01T09:08:48.349Z,964.01
2019-02-01T09:10:08.401Z,963.98
2019-02-01T09:15:30.588Z,964.01
2019-02-01T09:16:48.797Z,963.96
2019-02-01T09:17:24.592Z,963.98
2019-02-01T09:18:24.598Z,963.96
2019-02-01T09:21:17.316Z,963.92
2019-02-01T09:25:09.433Z,963.92
2019-02-01T09:26:24.446Z,963.93
2019-02-01T09:27:09.439Z,963.93
2019-02-01T09:42:15.909Z,963.95
2019-02-01T09:42:57.848Z,964.01
2019-02-01T09:43:58.414Z,964.02
2019-02-01T09:44:54.960Z,964.01
2019-02-01T09:45:55.887Z,964.00
2019-02-01T09:48:26.614Z,964.00
2019-02-01T09:51:01.319Z,964.05
2019-02-01T09:52:05.690Z,964.03
2019-02-01T09:53:36.826Z,964.03
2019-02-01T09:54:24.822Z,964.07
2019-02-01T09:55:26.338Z,964.08
2019-02-01T09:56:01.829Z,964.10
2019-02-01T09:57:01.819Z,964.06
2019-02-01T09:59:33.540Z,964.01
2019-02-01T10:00:36.407Z,964.07
2019-02-01T10:03:05.264Z,964.17
2019-02-01T10:04:27.701Z,964.20
2019-02-01T10:05:30.702Z,964.23
2019-02-01T10:06:08.766Z,964.22
2019-02-01T10:07:40.765Z,964.27
2019-02-01T10:09:40.009Z,964.37
2019-02-01T10:10:43.254Z,964.34
2019-02-01T10:11:41.258Z,964.31
2019-02-01T10:14:29.975Z,964.31
2019-02-01T10:15:08.982Z,964.28
2019-02-01T10:17:46.210Z,964.32
2019-02-01T10:18:40.711Z,964.28
2019-02-01T10:20:01.711Z,964.27
2019-02-01T10:20:42.644Z,964.25
2019-02-01T10:21:41.210Z,964.25
2019-02-01T10:22:41.209Z,964.27
2019-02-01T10:23:45.211Z,964.22
2019-02-01T10:26:33.937Z,964.24
2019-02-01T10:29:08.404Z,964.37
2019-02-01T10:29:44.411Z,964.38
2019-02-01T10:30:44.408Z,964.39
2019-02-01T10:33:36.696Z,964.36
2019-02-01T10:34:26.141Z,964.37
2019-02-01T10:36:48.492Z,964.44
2019-02-01T10:37:47.833Z,964.45
2019-02-01T10:38:48.511Z,964.54
2019-02-01T10:39:52.496Z,964.58
2019-02-01T10:40:48.084Z,964.58
2019-02-01T10:41:50.837Z,964.59
2019-02-01T10:44:34.465Z,964.52
2019-02-01T10:47:09.787Z,964.55
2019-02-01T10:47:57.589Z,964.50
2019-02-01T10:48:55.710Z,964.55
2019-02-01T10:50:02.227Z,964.56
2019-02-01T10:52:31.358Z,964.57
2019-02-01T10:53:52.366Z,964.55
2019-02-01T10:54:31.365Z,964.53
2019-02-01T10:55:32.800Z,964.52
2019-02-01T10:56:35.368Z,964.53
2019-02-01T10:57:31.865Z,964.51
2019-02-01T10:58:31.330Z,964.50
2019-02-01T10:59:31.418Z,964.48
2019-02-01T11:00:32.409Z,964.52
2019-02-01T11:01:32.365Z,964.46
2019-02-01T11:02:37.366Z,964.40
2019-02-01T11:03:32.365Z,964.35
2019-02-01T11:07:38.519Z,964.29
2019-02-01T11:08:36.960Z,964.34
2019-02-01T11:11:28.241Z,964.43
2019-02-01T11:12:42.247Z,964.45
2019-02-01T11:13:32.250Z,964.54
2019-02-01T11:14:15.181Z,964.52
2019-02-01T11:16:39.096Z,964.48
2019-02-01T11:17:40.075Z,964.39
2019-02-01T11:20:35.322Z,964.42
2019-02-01T11:21:14.328Z,964.36
2019-02-01T11:22:14.328Z,964.33
2019-02-01T11:23:35.831Z,964.28
2019-02-01T11:24:39.328Z,964.31
2019-02-01T11:27:09.323Z,964.28
2019-02-01T11:28:07.313Z,964.29
2019-02-01T11:28:46.316Z,964.28
2019-02-01T11:31:21.546Z,964.27
2019-02-01T11:32:27.553Z,964.30
2019-02-01T11:33:44.166Z,964.33
2019-02-01T11:37:34.641Z,964.26
2019-02-01T11:41:35.082Z,964.17
2019-02-01T11:42:31.574Z,964.20
2019-02-01T11:43:31.575Z,964.17
2019-02-01T11:44:56.009Z,964.18
2019-02-01T11:45:32.076Z,964.18
2019-02-01T11:48:33.911Z,964.15
2019-02-01T11:49:30.977Z,964.14
2019-02-01T11:50:07.980Z,964.11
2019-02-01T11:51:07.977Z,964.11
2019-02-01T11:52:11.477Z,964.08
2019-02-01T11:53:29.476Z,964.11
2019-02-01T11:56:02.072Z,964.08
2019-02-01T11:56:40.136Z,964.09
2019-02-01T11:59:14.723Z,964.07
2019-02-01T12:00:14.736Z,964.08
2019-02-01T12:01:14.736Z,964.10
2019-02-01T12:02:21.168Z,964.07
2019-02-01T12:03:21.667Z,964.02
2019-02-01T12:04:17.168Z,964.01
2019-02-01T12:09:52.789Z,964.07
2019-02-01T12:11:14.512Z,964.01
2019-02-01T12:13:28.116Z,964.05
2019-02-01T12:15:56.597Z,964.04
2019-02-01T12:16:56.603Z,963.98
2019-02-01T12:17:58.075Z,963.92
2019-02-01T12:19:01.118Z,963.93
2019-02-01T12:21:49.345Z,963.82
2019-02-01T12:22:29.783Z,963.77
2019-02-01T12:23:28.349Z,963.72
2019-02-01T12:24:32.358Z,963.75
2019-02-01T12:25:28.845Z,963.77
2019-02-01T12:28:00.323Z,963.79
2019-02-01T12:30:35.292Z,963.77
2019-02-01T12:31:35.738Z,963.74
2019-02-01T12:34:24.782Z,963.75
2019-02-01T12:35:03.128Z,963.75
2019-02-01T12:37:38.550Z,963.64
2019-02-01T12:38:38.539Z,963.67
2019-02-01T12:39:38.539Z,963.69
2019-02-01T12:43:46.100Z,963.83
2019-02-01T12:44:46.106Z,963.90
2019-02-01T12:45:46.106Z,963.93
2019-02-01T12:49:52.661Z,963.84
2019-02-01T12:50:52.683Z,963.83
2019-02-01T12:51:52.663Z,963.76
2019-02-01T12:52:53.162Z,963.74
2019-02-01T12:53:56.662Z,963.74
2019-02-01T12:54:52.503Z,963.66
2019-02-01T12:55:53.164Z,963.67
2019-02-01T12:58:24.909Z,963.59
2019-02-01T12:59:36.827Z,963.62
2019-02-01T13:00:24.898Z,963.60
2019-02-01T13:01:46.403Z,963.61
2019-02-01T13:04:17.749Z,963.61
2019-02-01T13:09:34.393Z,963.54
2019-02-01T13:15:33.023Z,963.48
2019-02-01T13:16:16.964Z,963.48
2019-02-01T13:17:12.032Z,963.48
2019-02-01T13:20:06.758Z,963.53
2019-02-01T13:20:45.210Z,963.46
2019-02-01T13:23:23.416Z,963.43
2019-02-01T13:24:18.421Z,963.42
2019-02-01T13:25:18.420Z,963.41
2019-02-01T13:29:45.815Z,963.40
2019-02-01T13:30:24.907Z,963.42
2019-02-01T13:31:24.997Z,963.49
2019-02-01T13:35:32.596Z,963.74
2019-02-01T13:36:32.079Z,963.72
2019-02-01T13:37:33.105Z,963.73
2019-02-01T13:38:33.115Z,963.73
2019-02-01T13:39:56.107Z,963.67
2019-02-01T13:40:33.104Z,963.68
2019-02-01T13:45:07.290Z,963.57
2019-02-01T13:46:01.366Z,963.52
2019-02-01T13:49:57.315Z,963.42
2019-02-01T13:50:39.771Z,963.41
2019-02-01T13:51:39.788Z,963.38
2019-02-01T13:54:11.528Z,963.38
2019-02-01T13:57:08.682Z,963.33
2019-02-01T13:59:17.752Z,963.34
2019-02-01T14:00:21.235Z,963.32
2019-02-01T14:01:39.231Z,963.35
2019-02-01T14:03:49.587Z,963.41
2019-02-01T14:04:49.594Z,963.49
2019-02-01T14:05:53.639Z,963.54
2019-02-01T14:08:42.331Z,963.61
2019-02-01T14:12:27.263Z,963.62
2019-02-01T14:13:48.254Z,963.66
2019-02-01T14:15:02.755Z,963.70
2019-02-01T14:18:34.339Z,963.66
2019-02-01T14:19:34.324Z,963.62
2019-02-01T14:20:34.316Z,963.65
2019-02-01T14:23:31.041Z,963.65
2019-02-01T14:24:06.047Z,963.72
2019-02-01T14:31:30.035Z,963.67
2019-02-01T14:32:37.019Z,963.64
2019-02-01T14:33:19.517Z,963.64
2019-02-01T14:34:18.553Z,963.61
2019-02-01T14:35:37.523Z,963.57
2019-02-01T14:36:16.527Z,963.52
2019-02-01T14:37:37.579Z,963.43
2019-02-01T14:38:41.525Z,963.43
2019-02-01T14:39:19.018Z,963.36
2019-02-01T14:41:48.502Z,963.44
2019-02-01T14:45:54.298Z,963.42
2019-02-01T14:46:55.000Z,963.42
2019-02-01T14:47:54.995Z,963.45
2019-02-01T14:49:18.490Z,963.47
2019-02-01T14:49:58.486Z,963.46
2019-02-01T14:50:55.489Z,963.46
2019-02-01T14:51:57.013Z,963.50
2019-02-01T14:54:27.170Z,963.54
2019-02-01T14:55:30.677Z,963.59
2019-02-01T14:58:19.058Z,963.60
2019-02-01T14:58:59.737Z,963.54
2019-02-01T15:01:37.802Z,963.56
2019-02-01T15:02:30.337Z,963.55
2019-02-01T15:03:53.835Z,963.49
2019-02-01T15:05:05.853Z,963.49
2019-02-01T15:05:30.838Z,963.47
2019-02-01T15:06:34.835Z,963.44
2019-02-01T15:09:23.561Z,963.35
2019-02-01T15:10:06.000Z,963.30
2019-02-01T15:11:02.566Z,963.30
2019-02-01T15:13:38.020Z,963.34
2019-02-01T15:14:59.076Z,963.32
2019-02-01T15:20:17.098Z,963.38
2019-02-01T15:22:50.625Z,963.43
2019-02-01T15:23:47.130Z,963.46
2019-02-01T15:25:08.691Z,963.49
2019-02-01T15:26:08.629Z,963.52
2019-02-01T15:27:01.655Z,963.51
2019-02-01T15:28:12.758Z,963.50
2019-02-01T15:28:47.646Z,963.52
2019-02-01T15:31:19.354Z,963.50
2019-02-01T15:32:19.371Z,963.47
2019-02-01T15:36:48.561Z,963.41
2019-02-01T15:37:40.107Z,963.40
2019-02-01T15:44:39.904Z,963.48
2019-02-01T15:45:41.475Z,963.50
2019-02-01T15:46:35.507Z,963.55
2019-02-01T15:47:35.979Z,963.54
2019-02-01T15:51:42.613Z,963.60
2019-02-01T15:52:48.609Z,963.61
2019-02-01T15:53:42.603Z,963.65
2019-02-01T15:54:45.563Z,963.61
2019-02-01T15:57:18.229Z,963.60
2019-02-01T15:58:19.661Z,963.55
2019-02-01T15:59:39.235Z,963.57
2019-02-01T16:00:17.830Z,963.50
2019-02-01T16:01:43.228Z,963.47
2019-02-01T16:02:18.727Z,963.46
2019-02-01T16:03:39.724Z,963.45
2019-02-01T16:04:26.164Z,963.44
2019-02-01T16:05:19.227Z,963.42
2019-02-01T16:06:43.730Z,963.40
2019-02-01T16:07:19.227Z,963.40
2019-02-01T16:08:43.162Z,963.39
2019-02-01T16:10:51.069Z,963.37
2019-02-01T16:15:18.566Z,963.27
2019-02-01T16:16:18.572Z,963.29
2019-02-01T16:24:43.025Z,963.13
2019-02-01T16:25:43.006Z,963.14
2019-02-01T16:26:43.810Z,963.18
2019-02-01T16:32:22.072Z,963.16
2019-02-01T16:33:43.050Z,963.09
2019-02-01T16:36:18.310Z,963.05
2019-02-01T16:40:38.734Z,963.02
2019-02-01T16:41:00.226Z,962.95
2019-02-01T16:42:00.225Z,962.93
2019-02-01T16:43:00.725Z,962.90
2019-02-01T16:44:00.729Z,962.93
2019-02-01T16:45:04.745Z,962.95
2019-02-01T16:46:00.729Z,962.91
2019-02-01T16:50:07.875Z,962.87
2019-02-01T16:51:25.854Z,962.89
2019-02-01T16:52:05.801Z,962.86
2019-02-01T16:53:25.956Z,962.84
2019-02-01T16:54:25.866Z,962.89
2019-02-01T16:55:29.365Z,962.90
2019-02-01T16:56:04.873Z,962.91
2019-02-01T16:57:05.380Z,962.84
2019-02-01T17:01:12.129Z,962.80
2019-02-01T17:05:32.569Z,962.81
2019-02-01T17:07:46.727Z,962.78
2019-02-01T17:08:46.731Z,962.77
2019-02-01T17:09:46.743Z,962.76
2019-02-01T17:11:08.242Z,962.71
2019-02-01T17:11:51.241Z,962.73
2019-02-01T17:13:08.231Z,962.72
2019-02-01T17:13:47.230Z,962.73
2019-02-01T17:15:08.730Z,962.69
2019-02-01T17:16:08.731Z,962.64
2019-02-01T17:17:12.230Z,962.68
2019-02-01T17:17:47.734Z,962.59
2019-02-01T17:21:52.385Z,962.56
2019-02-01T17:23:14.890Z,962.60
2019-02-01T17:24:11.888Z,962.63
2019-02-01T17:31:25.609Z,962.69
2019-02-01T17:32:01.177Z,962.71
2019-02-01T17:33:04.681Z,962.73
2019-02-01T17:35:32.909Z,962.71
2019-02-01T17:36:32.917Z,962.66
2019-02-01T17:37:33.427Z,962.71
2019-02-01T17:40:08.690Z,962.78
2019-02-01T17:41:08.568Z,962.81
2019-02-01T17:42:29.572Z,962.81
2019-02-01T17:43:09.075Z,962.78
2019-02-01T17:44:12.585Z,962.76
2019-02-01T17:45:09.069Z,962.80
2019-02-01T17:46:09.078Z,962.74
2019-02-01T17:48:40.804Z,962.76
2019-02-01T17:49:48.239Z,962.75
2019-02-01T17:50:40.821Z,962.72
2019-02-01T17:52:02.304Z,962.72
2019-02-01T17:52:41.312Z,962.73
2019-02-01T17:54:03.787Z,962.77
2019-02-01T17:55:08.413Z,962.80
2019-02-01T17:57:13.551Z,962.84
2019-02-01T17:58:13.535Z,962.89
2019-02-01T17:59:13.538Z,962.91
2019-02-01T18:00:22.972Z,963.00
2019-02-01T18:05:51.540Z,962.90
2019-02-01T18:06:48.530Z,962.89
2019-02-01T18:07:48.532Z,962.87
2019-02-01T18:10:41.254Z,962.82
2019-02-01T18:13:16.747Z,962.79
2019-02-01T18:13:55.731Z,962.78
2019-02-01T18:14:55.729Z,962.76
2019-02-01T18:17:31.461Z,962.71
2019-02-01T18:21:33.332Z,962.72
2019-02-01T18:22:33.398Z,962.74
2019-02-01T18:23:51.399Z,962.77
2019-02-01T18:26:02.630Z,962.70
2019-02-01T18:27:02.639Z,962.71
2019-02-01T18:28:27.166Z,962.71
2019-02-01T18:29:03.139Z,962.70
2019-02-01T18:31:55.483Z,962.74
2019-02-01T18:32:55.491Z,962.70
2019-02-01T18:33:40.996Z,962.70
2019-02-01T18:36:28.669Z,962.63
2019-02-01T18:37:27.238Z,962.60
2019-02-01T18:38:27.214Z,962.58
2019-02-01T18:39:31.216Z,962.56
2019-02-01T18:41:38.056Z,962.55
2019-02-01T18:42:38.106Z,962.56
2019-02-01T18:43:38.062Z,962.53
2019-02-01T18:44:42.066Z,962.53
2019-02-01T18:46:00.999Z,962.49
2019-02-01T18:46:52.574Z,962.47
2019-02-01T18:47:59.566Z,962.49
2019-02-01T18:50:18.095Z,962.54
2019-02-01T18:51:31.309Z,962.52
2019-02-01T18:52:10.310Z,962.59
2019-02-01T18:55:03.027Z,962.64
2019-02-01T18:55:46.028Z,962.67
2019-02-01T18:56:42.511Z,962.68
2019-02-01T18:58:03.530Z,962.67
2019-02-01T19:00:37.704Z,962.81
2019-02-01T19:04:42.968Z,962.84
2019-02-01T19:06:56.199Z,962.77
2019-02-01T19:09:26.669Z,962.80
2019-02-01T19:11:59.648Z,962.84
2019-02-01T19:13:02.146Z,962.91
2019-02-01T19:14:00.549Z,962.94
2019-02-01T19:16:48.863Z,962.98
2019-02-01T19:17:52.370Z,962.97
2019-02-01T19:18:32.295Z,962.99
2019-02-01T19:21:21.588Z,962.99
2019-02-01T19:22:00.622Z,962.98
2019-02-01T19:26:37.073Z,963.03
2019-02-01T19:30:12.883Z,963.05
2019-02-01T19:31:14.318Z,963.00
2019-02-01T19:32:12.882Z,963.02
2019-02-01T19:33:14.816Z,963.00
2019-02-01T19:34:16.882Z,963.01
2019-02-01T19:35:34.382Z,963.05
2019-02-01T19:36:13.383Z,963.16
2019-02-01T19:37:13.387Z,963.16
2019-02-01T19:38:13.881Z,963.23
2019-02-01T19:39:17.357Z,963.24
2019-02-01T19:40:37.884Z,963.21
2019-02-01T19:41:13.890Z,963.19
2019-02-01T19:44:07.106Z,963.12
2019-02-01T19:44:46.115Z,963.11
2019-02-01T19:45:51.051Z,963.10
2019-02-01T19:46:48.617Z,963.10
2019-02-01T19:49:17.835Z,963.07
2019-02-01T19:50:17.851Z,963.02
2019-02-01T19:51:21.343Z,963.05
2019-02-01T19:55:20.994Z,963.05
2019-02-01T19:56:45.488Z,963.03
2019-02-01T19:57:20.989Z,963.03
2019-02-01T20:00:13.719Z,963.02
2019-02-01T20:01:13.714Z,963.04
2019-02-01T20:04:59.399Z,962.99
2019-02-01T20:05:59.398Z,962.95
2019-02-01T20:08:34.687Z,962.96
2019-02-01T20:09:34.694Z,962.92
2019-02-01T20:12:10.452Z,962.94
2019-02-01T20:13:27.919Z,962.88
2019-02-01T20:14:06.919Z,962.96
2019-02-01T20:16:40.638Z,962.87
2019-02-01T20:18:03.148Z,962.85
2019-02-01T20:18:39.151Z,962.87
2019-02-01T20:19:40.117Z,962.81
2019-02-01T20:21:00.149Z,962.78
2019-02-01T20:22:00.155Z,962.79
2019-02-01T20:22:43.144Z,962.77
2019-02-01T20:25:10.875Z,962.78
2019-02-01T20:26:10.878Z,962.78
2019-02-01T20:28:46.084Z,962.80